createdAt,value
2018-06-16T00:02:25.441Z,16.20
2018-06-16T00:04:53.376Z,16.20
2018-06-16T00:07:21.322Z,16.20
2018-06-16T00:09:49.182Z,16.20
2018-06-16T00:12:17.083Z,16.20
2018-06-16T00:14:45.002Z,16.20
2018-06-16T00:17:13.049Z,16.20
2018-06-16T00:19:40.974Z,16.20
2018-06-16T00:22:08.922Z,16.20
2018-06-16T00:24:36.899Z,16.20
2018-06-16T00:27:04.924Z,16.10
2018-06-16T00:29:32.782Z,16.00
2018-06-16T00:32:00.729Z,16.00
2018-06-16T00:34:28.798Z,16.10
2018-06-16T00:36:56.838Z,16.00
2018-06-16T00:39:24.718Z,16.00
2018-06-16T00:41:52.629Z,16.00
2018-06-16T00:44:20.580Z,16.00
2018-06-16T00:46:48.471Z,16.00
2018-06-16T00:49:16.538Z,15.90
2018-06-16T00:51:44.484Z,15.90
2018-06-16T00:54:12.370Z,15.80
2018-06-16T00:56:40.470Z,15.80
2018-06-16T00:59:08.343Z,15.80
2018-06-16T01:01:36.173Z,15.70
2018-06-16T01:04:04.074Z,15.70
2018-06-16T01:06:32.122Z,15.60
2018-06-16T01:09:00.044Z,15.60
2018-06-16T01:11:27.955Z,15.60
2018-06-16T01:13:55.929Z,15.70
2018-06-16T01:16:23.982Z,15.70
2018-06-16T01:18:51.934Z,15.70
2018-06-16T01:21:19.833Z,15.70
2018-06-16T01:23:47.779Z,15.70
2018-06-16T01:26:15.698Z,15.70
2018-06-16T01:28:43.750Z,15.80
2018-06-16T01:31:12.346Z,15.80
2018-06-16T01:33:40.370Z,15.80
2018-06-16T01:36:08.306Z,15.80
2018-06-16T01:38:36.337Z,15.90
2018-06-16T01:41:04.225Z,15.90
2018-06-16T01:43:32.108Z,15.80
2018-06-16T01:46:00.080Z,15.80
2018-06-16T01:48:28.028Z,15.80
2018-06-16T01:50:55.963Z,15.70
2018-06-16T01:53:23.846Z,15.70
2018-06-16T01:55:51.793Z,15.70
2018-06-16T01:58:19.726Z,15.70
2018-06-16T02:00:47.694Z,15.70
2018-06-16T02:05:50.105Z,15.80
2018-06-16T02:08:18.035Z,15.80
2018-06-16T02:10:45.894Z,15.90
2018-06-16T02:13:13.955Z,15.90
2018-06-16T02:15:41.980Z,15.90
2018-06-16T02:18:09.898Z,15.80
2018-06-16T02:20:37.998Z,15.80
2018-06-16T02:23:05.932Z,15.80
2018-06-16T02:25:34.231Z,15.80
2018-06-16T02:28:02.109Z,15.80
2018-06-16T02:30:30.064Z,15.70
2018-06-16T02:32:57.955Z,15.80
2018-06-16T02:35:25.916Z,15.80
2018-06-16T02:37:53.870Z,15.80
2018-06-16T02:40:21.789Z,15.70
2018-06-16T02:42:49.673Z,15.70
2018-06-16T02:45:17.632Z,15.70
2018-06-16T02:47:45.540Z,15.70
2018-06-16T02:50:13.495Z,15.70
2018-06-16T02:52:41.575Z,15.60
2018-06-16T02:55:09.688Z,15.60
2018-06-16T02:57:37.614Z,15.60
2018-06-16T03:00:05.575Z,15.60
2018-06-16T03:02:33.550Z,15.60
2018-06-16T03:05:01.468Z,15.60
2018-06-16T03:07:29.386Z,15.60
2018-06-16T03:09:57.363Z,15.60
2018-06-16T03:12:25.329Z,15.50
2018-06-16T03:14:53.293Z,15.50
2018-06-16T03:17:21.348Z,15.40
2018-06-16T03:19:49.321Z,15.40
2018-06-16T03:22:17.195Z,15.40
2018-06-16T03:24:45.195Z,15.30
2018-06-16T03:27:13.151Z,15.40
2018-06-16T03:29:41.095Z,15.30
2018-06-16T03:32:09.130Z,15.30
2018-06-16T03:34:36.967Z,15.30
2018-06-16T03:37:05.015Z,15.40
2018-06-16T03:39:32.968Z,15.30
2018-06-16T03:42:00.954Z,15.40
2018-06-16T03:44:28.891Z,15.40
2018-06-16T03:46:56.767Z,15.40
2018-06-16T03:49:24.744Z,15.40
2018-06-16T03:51:52.649Z,15.40
2018-06-16T03:54:20.572Z,15.40
2018-06-16T03:56:48.752Z,15.40
2018-06-16T03:59:16.694Z,15.40
2018-06-16T04:01:44.598Z,15.40
2018-06-16T04:04:12.979Z,15.40
2018-06-16T04:06:40.936Z,15.50
2018-06-16T04:09:10.101Z,15.50
2018-06-16T04:11:38.290Z,15.50
2018-06-16T04:14:06.648Z,15.60
2018-06-16T04:16:34.575Z,15.60
2018-06-16T04:21:30.391Z,15.70
2018-06-16T04:23:58.370Z,15.70
2018-06-16T04:26:26.308Z,15.80
2018-06-16T04:28:54.710Z,15.80
2018-06-16T04:31:22.600Z,15.90
2018-06-16T04:33:50.575Z,16.00
2018-06-16T04:36:18.625Z,16.00
2018-06-16T04:38:46.535Z,16.10
2018-06-16T04:41:14.418Z,16.10
2018-06-16T04:43:42.404Z,16.20
2018-06-16T04:46:10.434Z,16.20
2018-06-16T04:48:45.046Z,16.20
2018-06-16T04:51:12.940Z,16.20
2018-06-16T04:53:40.908Z,16.30
2018-06-16T04:56:08.893Z,16.30
2018-06-16T04:58:37.140Z,16.30
2018-06-16T05:01:05.196Z,16.30
2018-06-16T05:03:33.850Z,16.40
2018-06-16T05:06:01.851Z,16.40
2018-06-16T05:08:29.811Z,16.50
2018-06-16T05:10:57.650Z,16.60
2018-06-16T05:13:25.631Z,16.60
2018-06-16T05:15:53.562Z,16.70
2018-06-16T05:18:21.449Z,16.80
2018-06-16T05:20:49.328Z,16.90
2018-06-16T05:25:44.938Z,17.00
2018-06-16T05:28:12.813Z,17.10
2018-06-16T05:30:40.787Z,17.10
2018-06-16T05:35:36.498Z,17.20
2018-06-16T05:38:04.403Z,17.20
2018-06-16T05:40:32.282Z,17.20
2018-06-16T05:43:00.159Z,17.20
2018-06-16T05:45:28.048Z,17.30
2018-06-16T05:47:56.024Z,17.30
2018-06-16T05:50:23.885Z,17.40
2018-06-16T05:52:55.099Z,17.40
2018-06-16T05:55:22.984Z,17.50
2018-06-16T05:57:50.919Z,17.50
2018-06-16T06:00:21.050Z,17.60
2018-06-16T06:02:52.344Z,17.70
2018-06-16T06:05:20.363Z,17.80
2018-06-16T06:07:48.491Z,18.00
2018-06-16T06:10:16.451Z,18.10
2018-06-16T06:12:45.811Z,18.20
2018-06-16T06:15:13.726Z,18.30
2018-06-16T06:17:41.558Z,18.40
2018-06-16T06:20:09.436Z,18.50
2018-06-16T06:22:37.503Z,18.70
2018-06-16T06:25:05.517Z,18.90
2018-06-16T06:27:33.448Z,19.00
2018-06-16T06:30:01.496Z,19.10
2018-06-16T06:32:29.439Z,19.20
2018-06-16T06:34:57.416Z,19.30
2018-06-16T06:37:25.420Z,19.40
2018-06-16T06:39:53.757Z,19.60
2018-06-16T06:42:21.711Z,20.00
2018-06-16T06:44:49.575Z,20.30
2018-06-16T06:47:17.547Z,20.50
2018-06-16T06:49:45.508Z,20.50
2018-06-16T06:52:16.282Z,20.50
2018-06-16T06:54:44.329Z,20.60
2018-06-16T06:57:12.190Z,20.70
2018-06-16T06:59:40.120Z,20.90
2018-06-16T07:02:08.030Z,21.00
2018-06-16T07:04:35.922Z,21.00
2018-06-16T07:07:03.960Z,21.20
2018-06-16T07:09:32.002Z,21.20
2018-06-16T07:11:59.816Z,21.40
2018-06-16T07:14:27.721Z,21.70
2018-06-16T07:16:55.676Z,22.00
2018-06-16T07:19:23.681Z,22.30
2018-06-16T07:21:51.660Z,22.40
2018-06-16T07:24:19.765Z,22.50
2018-06-16T07:26:47.722Z,22.70
2018-06-16T07:29:15.712Z,22.80
2018-06-16T07:31:43.690Z,23.00
2018-06-16T07:34:11.957Z,23.20
2018-06-16T07:36:40.120Z,23.40
2018-06-16T07:39:09.031Z,23.40
2018-06-16T07:41:37.020Z,23.00
2018-06-16T07:44:05.405Z,23.00
2018-06-16T07:46:33.423Z,23.30
2018-06-16T07:49:01.855Z,23.30
2018-06-16T07:51:54.379Z,23.10
2018-06-16T07:54:22.444Z,22.90
2018-06-16T07:56:50.332Z,22.90
2018-06-16T07:59:18.198Z,23.20
2018-06-16T08:01:46.114Z,23.50
2018-06-16T08:04:14.109Z,23.80
2018-06-16T08:06:42.044Z,24.10
2018-06-16T08:09:10.797Z,24.30
2018-06-16T08:11:38.811Z,24.50
2018-06-16T08:14:06.910Z,24.30
2018-06-16T08:16:34.845Z,24.50
2018-06-16T08:19:02.812Z,24.50
2018-06-16T08:21:30.717Z,24.40
2018-06-16T08:23:58.794Z,24.10
2018-06-16T08:26:26.644Z,23.90
2018-06-16T08:28:54.630Z,24.00
2018-06-16T08:31:22.680Z,24.50
2018-06-16T08:33:50.581Z,24.80
2018-06-16T08:36:18.520Z,25.30
2018-06-16T08:38:46.545Z,26.00
2018-06-16T08:41:14.548Z,26.20
2018-06-16T08:43:42.544Z,26.20
2018-06-16T08:46:10.433Z,26.30
2018-06-16T08:48:38.423Z,26.40
2018-06-16T08:51:06.422Z,26.80
2018-06-16T08:53:34.298Z,27.40
2018-06-16T08:56:02.192Z,28.40
2018-06-16T08:58:29.933Z,29.30
2018-06-16T09:00:57.782Z,29.30
2018-06-16T09:03:25.648Z,28.90
2018-06-16T09:05:54.005Z,28.40
2018-06-16T09:08:21.775Z,27.90
2018-06-16T09:10:49.813Z,27.40
2018-06-16T09:13:17.766Z,27.30
2018-06-16T09:15:45.686Z,27.50
2018-06-16T09:18:13.744Z,28.00
2018-06-16T09:20:41.622Z,28.70
2018-06-16T09:23:09.620Z,29.10
2018-06-16T09:25:37.654Z,29.40
2018-06-16T09:28:05.469Z,29.70
2018-06-16T09:30:33.446Z,29.90
2018-06-16T09:33:01.409Z,29.90
2018-06-16T09:35:29.346Z,29.90
2018-06-16T09:37:57.270Z,30.20
2018-06-16T09:40:25.176Z,30.50
2018-06-16T09:42:53.157Z,30.60
2018-06-16T09:45:21.058Z,30.70
2018-06-16T09:47:48.975Z,31.20
2018-06-16T09:50:16.967Z,31.20
2018-06-16T09:52:44.882Z,30.80
2018-06-16T09:55:12.794Z,30.60
2018-06-16T09:57:40.804Z,30.40
2018-06-16T10:00:13.258Z,30.50
2018-06-16T10:02:41.292Z,30.90
2018-06-16T10:05:09.330Z,32.00
2018-06-16T10:07:37.239Z,33.20
2018-06-16T10:10:05.105Z,33.80
2018-06-16T10:12:33.335Z,34.20
2018-06-16T10:15:01.268Z,34.30
2018-06-16T10:17:29.221Z,34.70
2018-06-16T10:19:57.043Z,34.80
2018-06-16T10:22:24.907Z,34.70
2018-06-16T10:24:52.807Z,35.00
2018-06-16T10:27:20.734Z,34.40
2018-06-16T10:29:48.606Z,33.60
2018-06-16T10:32:16.810Z,32.50
2018-06-16T10:34:45.031Z,31.70
2018-06-16T10:37:12.964Z,31.20
2018-06-16T10:39:40.964Z,31.50
2018-06-16T10:42:08.881Z,32.10
2018-06-16T10:44:36.793Z,33.00
2018-06-16T10:47:04.915Z,33.70
2018-06-16T10:49:33.449Z,33.60
2018-06-16T10:52:02.190Z,33.00
2018-06-16T10:54:30.373Z,32.10
2018-06-16T10:56:58.361Z,31.70
2018-06-16T10:59:26.296Z,30.60
2018-06-16T11:01:54.141Z,29.60
2018-06-16T11:04:23.449Z,29.30
2018-06-16T11:06:51.375Z,29.00
2018-06-16T11:09:20.148Z,28.40
2018-06-16T11:11:47.984Z,27.70
2018-06-16T11:14:16.226Z,27.00
2018-06-16T11:16:44.355Z,26.50
2018-06-16T11:19:12.316Z,26.20
2018-06-16T11:21:41.247Z,25.90
2018-06-16T11:24:09.684Z,25.70
2018-06-16T11:26:37.560Z,25.50
2018-06-16T11:29:05.894Z,25.80
2018-06-16T11:31:33.911Z,26.00
2018-06-16T11:34:01.898Z,26.00
2018-06-16T11:36:29.852Z,25.90
2018-06-16T11:38:58.175Z,25.60
2018-06-16T11:41:26.236Z,25.30
2018-06-16T11:43:54.158Z,24.90
2018-06-16T11:46:22.110Z,24.50
2018-06-16T11:48:50.165Z,24.20
2018-06-16T11:51:18.517Z,23.90
2018-06-16T11:53:46.569Z,23.70
2018-06-16T11:56:14.719Z,23.50
2018-06-16T11:58:42.692Z,23.40
2018-06-16T12:01:10.603Z,23.20
2018-06-16T12:06:06.608Z,23.00
2018-06-16T12:08:34.496Z,23.10
2018-06-16T12:11:02.566Z,23.60
2018-06-16T12:13:30.543Z,24.00
2018-06-16T12:15:58.525Z,24.10
2018-06-16T12:18:26.562Z,24.20
2018-06-16T12:20:54.447Z,24.10
2018-06-16T12:23:22.543Z,24.00
2018-06-16T12:25:50.615Z,23.90
2018-06-16T12:28:18.784Z,23.80
2018-06-16T12:30:46.805Z,23.80
2018-06-16T12:33:15.094Z,23.80
2018-06-16T12:35:43.047Z,23.80
2018-06-16T12:38:11.151Z,23.90
2018-06-16T12:40:39.374Z,24.10
2018-06-16T12:43:07.270Z,24.60
2018-06-16T12:45:35.221Z,25.40
2018-06-16T12:48:03.344Z,26.20
2018-06-16T12:50:31.513Z,26.50
2018-06-16T12:52:59.510Z,27.00
2018-06-16T12:55:27.462Z,27.10
2018-06-16T12:57:55.510Z,26.90
2018-06-16T13:00:23.494Z,26.70
2018-06-16T13:02:51.489Z,26.40
2018-06-16T13:05:20.898Z,26.20
2018-06-16T13:07:51.543Z,26.00
2018-06-16T13:10:19.553Z,26.00
2018-06-16T13:12:47.610Z,26.30
2018-06-16T13:15:15.784Z,26.50
2018-06-16T13:17:43.704Z,26.60
2018-06-16T13:20:11.626Z,26.60
2018-06-16T13:22:39.616Z,26.50
2018-06-16T13:25:07.621Z,26.90
2018-06-16T13:27:35.630Z,27.10
2018-06-16T13:30:03.643Z,27.20
2018-06-16T13:32:31.561Z,27.10
2018-06-16T13:35:01.981Z,27.00
2018-06-16T13:37:30.064Z,27.20
2018-06-16T13:39:58.028Z,27.50
2018-06-16T13:42:26.083Z,27.90
2018-06-16T13:44:54.012Z,27.80
2018-06-16T13:47:21.965Z,27.50
2018-06-16T13:49:49.971Z,27.40
2018-06-16T13:52:18.367Z,27.30
2018-06-16T13:54:46.420Z,27.20
2018-06-16T13:57:14.533Z,27.10
2018-06-16T13:59:42.400Z,26.80
2018-06-16T14:02:10.330Z,26.50
2018-06-16T14:04:38.416Z,26.40
2018-06-16T14:07:06.650Z,26.20
2018-06-16T14:09:35.260Z,25.90
2018-06-16T14:12:05.546Z,25.60
2018-06-16T14:14:33.667Z,25.50
2018-06-16T14:17:01.626Z,25.30
2018-06-16T14:19:29.993Z,25.30
2018-06-16T14:21:58.211Z,25.40
2018-06-16T14:24:26.490Z,25.30
2018-06-16T14:26:54.350Z,25.10
2018-06-16T14:29:22.276Z,25.10
2018-06-16T14:31:52.891Z,25.20
2018-06-16T14:34:20.966Z,25.40
2018-06-16T14:36:52.614Z,25.60
2018-06-16T14:39:20.806Z,25.60
2018-06-16T14:41:50.118Z,25.50
2018-06-16T14:44:19.637Z,25.60
2018-06-16T14:46:48.863Z,25.80
2018-06-16T14:49:17.004Z,25.90
2018-06-16T14:51:44.976Z,26.00
2018-06-16T14:54:12.873Z,26.30
2018-06-16T14:56:40.866Z,26.40
2018-06-16T14:59:08.909Z,26.40
2018-06-16T15:01:36.909Z,26.30
2018-06-16T15:04:05.175Z,26.10
2018-06-16T15:06:33.099Z,26.00
2018-06-16T15:09:01.010Z,25.90
2018-06-16T15:11:28.955Z,25.80
2018-06-16T15:13:57.029Z,25.80
2018-06-16T15:16:24.874Z,26.00
2018-06-16T15:18:52.804Z,26.30
2018-06-16T15:21:20.695Z,26.10
2018-06-16T15:23:48.596Z,25.80
2018-06-16T15:26:16.423Z,25.60
2018-06-16T15:28:44.430Z,25.40
2018-06-16T15:31:12.364Z,25.20
2018-06-16T15:33:40.408Z,25.10
2018-06-16T15:36:08.323Z,25.10
2018-06-16T15:38:36.286Z,25.20
2018-06-16T15:43:32.376Z,25.00
2018-06-16T15:46:00.273Z,24.90
2018-06-16T15:48:28.309Z,25.00
2018-06-16T15:50:56.301Z,24.90
2018-06-16T15:53:24.442Z,24.80
2018-06-16T15:55:52.357Z,24.70
2018-06-16T15:58:20.293Z,24.60
2018-06-16T16:00:48.327Z,24.40
2018-06-16T16:03:16.282Z,24.40
2018-06-16T16:08:11.924Z,24.20
2018-06-16T16:10:39.857Z,24.10
2018-06-16T16:13:07.844Z,24.10
2018-06-16T16:15:35.897Z,24.00
2018-06-16T16:18:03.899Z,24.00
2018-06-16T16:20:31.890Z,23.90
2018-06-16T16:22:59.932Z,23.70
2018-06-16T16:25:27.992Z,23.50
2018-06-16T16:27:56.132Z,23.10
2018-06-16T16:30:24.060Z,22.80
2018-06-16T16:32:53.904Z,22.30
2018-06-16T16:35:21.866Z,21.80
2018-06-16T16:37:49.852Z,21.30
2018-06-16T16:40:17.965Z,20.90
2018-06-16T16:42:45.836Z,20.40
2018-06-16T16:45:13.768Z,19.80
2018-06-16T16:47:41.674Z,19.20
2018-06-16T16:50:09.631Z,18.60
2018-06-16T16:52:37.573Z,18.30
2018-06-16T16:55:05.647Z,18.20
2018-06-16T16:57:33.769Z,18.00
2018-06-16T17:00:01.691Z,18.00
2018-06-16T17:02:30.678Z,18.00
2018-06-16T17:04:58.717Z,18.00
2018-06-16T17:07:26.608Z,18.00
2018-06-16T17:09:54.929Z,18.10
2018-06-16T17:12:23.100Z,18.10
2018-06-16T17:14:51.022Z,18.20
2018-06-16T17:17:19.194Z,18.10
2018-06-16T17:19:48.028Z,18.00
2018-06-16T17:22:15.887Z,17.90
2018-06-16T17:24:43.736Z,17.80
2018-06-16T17:27:11.708Z,17.80
2018-06-16T17:29:39.625Z,17.80
2018-06-16T17:32:07.637Z,17.80
2018-06-16T17:37:03.377Z,17.80
2018-06-16T17:39:31.267Z,17.90
2018-06-16T17:41:59.292Z,17.90
2018-06-16T17:44:27.147Z,18.00
2018-06-16T17:46:55.072Z,18.10
2018-06-16T17:49:23.114Z,18.10
2018-06-16T17:51:51.074Z,18.10
2018-06-16T17:54:19.023Z,18.10
2018-06-16T17:56:46.905Z,18.20
2018-06-16T17:59:14.893Z,18.20
2018-06-16T18:01:42.728Z,18.20
2018-06-16T18:04:10.642Z,18.20
2018-06-16T18:06:38.569Z,18.20
2018-06-16T18:09:08.996Z,18.20
2018-06-16T18:11:37.101Z,18.20
2018-06-16T18:14:05.227Z,18.20
2018-06-16T18:16:33.135Z,18.20
2018-06-16T18:19:01.133Z,18.30
2018-06-16T18:21:29.175Z,18.30
2018-06-16T18:23:57.425Z,18.40
2018-06-16T18:26:25.432Z,18.40
2018-06-16T18:28:53.359Z,18.50
2018-06-16T18:31:21.326Z,18.50
2018-06-16T18:33:49.251Z,18.50
2018-06-16T18:36:20.763Z,18.40
2018-06-16T18:38:48.746Z,18.40
2018-06-16T18:41:16.960Z,18.30
2018-06-16T18:43:45.000Z,18.30
2018-06-16T18:46:13.071Z,18.40
2018-06-16T18:48:40.919Z,18.50
2018-06-16T18:51:08.864Z,18.60
2018-06-16T18:53:36.802Z,18.70
2018-06-16T18:56:05.140Z,18.70
2018-06-16T18:58:33.146Z,18.70
2018-06-16T19:01:01.278Z,18.70
2018-06-16T19:05:57.267Z,18.70
2018-06-16T19:08:25.202Z,18.70
2018-06-16T19:10:53.228Z,18.60
2018-06-16T19:13:21.180Z,18.60
2018-06-16T19:15:49.134Z,18.50
2018-06-16T19:18:17.148Z,18.50
2018-06-16T19:20:45.114Z,18.50
2018-06-16T19:23:13.083Z,18.50
2018-06-16T19:25:40.983Z,18.50
2018-06-16T19:28:08.950Z,18.50
2018-06-16T19:30:37.002Z,18.50
2018-06-16T19:33:05.104Z,18.50
2018-06-16T19:35:33.155Z,18.40
2018-06-16T19:38:01.423Z,18.50
2018-06-16T19:40:29.467Z,18.40
2018-06-16T19:42:57.430Z,18.40
2018-06-16T19:45:25.378Z,18.30
2018-06-16T19:47:53.276Z,18.30
2018-06-16T19:52:49.038Z,18.10
2018-06-16T19:55:17.050Z,18.10
2018-06-16T19:57:44.978Z,18.10
2018-06-16T20:00:13.048Z,18.00
2018-06-16T20:02:40.998Z,17.90
2018-06-16T20:05:09.007Z,17.90
2018-06-16T20:07:36.940Z,17.90
2018-06-16T20:10:04.861Z,17.90
2018-06-16T20:12:32.826Z,17.90
2018-06-16T20:15:00.747Z,17.90
2018-06-16T20:17:28.765Z,17.90
2018-06-16T20:19:56.821Z,17.90
2018-06-16T20:22:24.678Z,17.90
2018-06-16T20:24:52.642Z,18.00
2018-06-16T20:27:20.623Z,18.00
2018-06-16T20:29:48.891Z,18.00
2018-06-16T20:32:16.755Z,18.10
2018-06-16T20:34:44.655Z,18.10
2018-06-16T20:37:12.694Z,18.10
2018-06-16T20:39:40.598Z,18.10
2018-06-16T20:42:08.627Z,18.00
2018-06-16T20:44:36.558Z,18.00
2018-06-16T20:47:04.670Z,17.90
2018-06-16T20:49:32.558Z,17.90
2018-06-16T20:52:00.511Z,17.90
2018-06-16T20:54:28.459Z,17.80
2018-06-16T20:56:56.397Z,17.90
2018-06-16T20:59:24.370Z,17.90
2018-06-16T21:01:52.505Z,17.90
2018-06-16T21:04:20.609Z,17.80
2018-06-16T21:06:48.538Z,17.80
2018-06-16T21:09:16.559Z,17.80
2018-06-16T21:11:44.474Z,17.90
2018-06-16T21:14:12.489Z,17.80
2018-06-16T21:16:40.378Z,17.80
2018-06-16T21:19:08.599Z,17.80
2018-06-16T21:21:36.712Z,17.80
2018-06-16T21:24:04.657Z,17.80
2018-06-16T21:26:32.970Z,17.80
2018-06-16T21:29:00.930Z,17.80
2018-06-16T21:31:28.856Z,17.70
2018-06-16T21:33:56.788Z,17.70
2018-06-16T21:36:24.764Z,17.60
2018-06-16T21:38:52.727Z,17.50
2018-06-16T21:41:20.694Z,17.40
2018-06-16T21:43:48.602Z,17.20
2018-06-16T21:46:16.615Z,17.10
2018-06-16T21:48:44.711Z,17.00
2018-06-16T21:51:12.706Z,17.00
2018-06-16T21:53:41.002Z,16.90
2018-06-16T21:56:08.892Z,16.90
2018-06-16T21:58:36.793Z,16.80
2018-06-16T22:01:04.907Z,16.90
2018-06-16T22:03:32.858Z,16.80
2018-06-16T22:06:00.802Z,16.80
2018-06-16T22:08:33.615Z,16.70
2018-06-16T22:13:30.901Z,16.50
2018-06-16T22:15:59.197Z,16.40
2018-06-16T22:18:27.522Z,16.40
2018-06-16T22:20:55.792Z,16.40
2018-06-16T22:23:23.774Z,16.50
2018-06-16T22:25:51.668Z,16.60
2018-06-16T22:28:19.640Z,16.60
2018-06-16T22:30:47.631Z,16.60
2018-06-16T22:33:15.640Z,16.60
2018-06-16T22:35:43.729Z,16.70
2018-06-16T22:38:11.671Z,16.70
2018-06-16T22:40:39.647Z,16.70
2018-06-16T22:43:07.495Z,16.60
2018-06-16T22:45:35.672Z,16.60
2018-06-16T22:48:03.647Z,16.50
2018-06-16T22:50:31.658Z,16.40
2018-06-16T22:52:59.520Z,16.30
2018-06-16T22:55:27.849Z,16.30
2018-06-16T22:57:55.940Z,16.20
2018-06-16T23:00:27.749Z,16.20
2018-06-16T23:02:56.597Z,16.20
2018-06-16T23:05:24.629Z,16.00
2018-06-16T23:07:53.176Z,15.90
2018-06-16T23:10:21.312Z,15.90
2018-06-16T23:12:49.237Z,15.80
2018-06-16T23:15:17.255Z,15.80
2018-06-16T23:17:45.242Z,15.80
2018-06-16T23:20:13.116Z,15.80
2018-06-16T23:25:08.673Z,15.80
2018-06-16T23:27:36.690Z,15.80
2018-06-16T23:30:05.847Z,15.90
2018-06-16T23:32:33.811Z,15.90
2018-06-16T23:35:01.740Z,15.90
2018-06-16T23:37:29.729Z,15.90
2018-06-16T23:39:57.651Z,15.90
2018-06-16T23:42:25.632Z,16.00
2018-06-16T23:47:21.276Z,16.00
2018-06-16T23:49:49.219Z,16.00
2018-06-16T23:52:17.123Z,16.00
2018-06-16T23:54:45.097Z,15.90
2018-06-16T23:57:13.028Z,15.90
2018-06-16T23:59:41.078Z,15.90
